sensor_id;sensor_type;location;lat;lon;timestamp;P1;durP1;ratioP1;P2;durP2;ratioP2
2305;SDS011;1161;51.922;8.896;2023-04-25T00:01:40;26.20;;;10.90;;
2305;SDS011;1161;51.922;8.896;2023-04-25T00:04:07;25.03;;;9.20;;
2305;SDS011;1161;51.922;8.896;2023-04-25T00:06:35;25.17;;;8.87;;
2305;SDS011;1161;51.922;8.896;2023-04-25T00:09:02;19.90;;;8.43;;
2305;SDS011;1161;51.922;8.896;2023-04-25T00:11:28;20.43;;;8.47;;
2305;SDS011;1161;51.922;8.896;2023-04-25T00:13:56;15.87;;;8.07;;
2305;SDS011;1161;51.922;8.896;2023-04-25T00:16:22;17.87;;;8.43;;
2305;SDS011;1161;51.922;8.896;2023-04-25T00:18:49;23.57;;;9.60;;
2305;SDS011;1161;51.922;8.896;2023-04-25T00:21:18;23.60;;;9.87;;
2305;SDS011;1161;51.922;8.896;2023-04-25T00:23:46;27.20;;;8.47;;
2305;SDS011;1161;51.922;8.896;2023-04-25T00:26:13;20.27;;;8.60;;
2305;SDS011;1161;51.922;8.896;2023-04-25T00:28:40;31.87;;;10.60;;
2305;SDS011;1161;51.922;8.896;2023-04-25T00:31:06;24.33;;;8.50;;
2305;SDS011;1161;51.922;8.896;2023-04-25T00:33:33;24.97;;;8.60;;
2305;SDS011;1161;51.922;8.896;2023-04-25T00:35:59;25.93;;;8.97;;
2305;SDS011;1161;51.922;8.896;2023-04-25T00:38:26;30.23;;;10.67;;
2305;SDS011;1161;51.922;8.896;2023-04-25T00:40:54;18.60;;;9.57;;
2305;SDS011;1161;51.922;8.896;2023-04-25T00:43:22;18.03;;;7.57;;
2305;SDS011;1161;51.922;8.896;2023-04-25T00:45:48;32.27;;;9.57;;
2305;SDS011;1161;51.922;8.896;2023-04-25T00:48:15;25.13;;;9.97;;
2305;SDS011;1161;51.922;8.896;2023-04-25T00:50:43;36.20;;;9.63;;
2305;SDS011;1161;51.922;8.896;2023-04-25T00:53:16;17.83;;;8.87;;
2305;SDS011;1161;51.922;8.896;2023-04-25T00:55:42;30.93;;;8.90;;
2305;SDS011;1161;51.922;8.896;2023-04-25T00:58:10;21.30;;;8.23;;
2305;SDS011;1161;51.922;8.896;2023-04-25T01:00:37;19.23;;;9.50;;
2305;SDS011;1161;51.922;8.896;2023-04-25T01:03:04;21.40;;;8.60;;
2305;SDS011;1161;51.922;8.896;2023-04-25T01:05:31;23.33;;;9.43;;
2305;SDS011;1161;51.922;8.896;2023-04-25T01:07:57;24.83;;;13.07;;
2305;SDS011;1161;51.922;8.896;2023-04-25T01:10:25;20.43;;;9.67;;
2305;SDS011;1161;51.922;8.896;2023-04-25T01:12:51;23.70;;;10.07;;
2305;SDS011;1161;51.922;8.896;2023-04-25T01:15:19;23.77;;;8.73;;
2305;SDS011;1161;51.922;8.896;2023-04-25T01:17:45;29.53;;;11.30;;
2305;SDS011;1161;51.922;8.896;2023-04-25T01:20:14;34.20;;;9.63;;
2305;SDS011;1161;51.922;8.896;2023-04-25T01:22:43;21.37;;;10.60;;
2305;SDS011;1161;51.922;8.896;2023-04-25T01:25:09;25.40;;;13.20;;
2305;SDS011;1161;51.922;8.896;2023-04-25T01:27:36;23.23;;;12.00;;
2305;SDS011;1161;51.922;8.896;2023-04-25T01:30:04;25.43;;;12.10;;
2305;SDS011;1161;51.922;8.896;2023-04-25T01:32:31;26.67;;;13.33;;
2305;SDS011;1161;51.922;8.896;2023-04-25T01:35:03;31.07;;;14.60;;
2305;SDS011;1161;51.922;8.896;2023-04-25T01:37:34;31.83;;;15.70;;
2305;SDS011;1161;51.922;8.896;2023-04-25T01:40:02;25.43;;;11.90;;
2305;SDS011;1161;51.922;8.896;2023-04-25T01:42:31;26.77;;;13.63;;
2305;SDS011;1161;51.922;8.896;2023-04-25T01:44:57;46.77;;;14.77;;
2305;SDS011;1161;51.922;8.896;2023-04-25T01:47:24;35.97;;;14.50;;
2305;SDS011;1161;51.922;8.896;2023-04-25T01:49:51;34.50;;;14.40;;
2305;SDS011;1161;51.922;8.896;2023-04-25T01:52:17;35.27;;;13.60;;
2305;SDS011;1161;51.922;8.896;2023-04-25T01:54:44;27.73;;;13.77;;
2305;SDS011;1161;51.922;8.896;2023-04-25T01:57:13;31.97;;;12.00;;
2305;SDS011;1161;51.922;8.896;2023-04-25T01:59:40;35.33;;;12.80;;
2305;SDS011;1161;51.922;8.896;2023-04-25T02:02:07;33.00;;;11.60;;
2305;SDS011;1161;51.922;8.896;2023-04-25T02:04:34;32.73;;;13.40;;
2305;SDS011;1161;51.922;8.896;2023-04-25T02:07:00;21.67;;;11.87;;
2305;SDS011;1161;51.922;8.896;2023-04-25T02:09:27;21.63;;;11.93;;
2305;SDS011;1161;51.922;8.896;2023-04-25T02:11:53;26.83;;;13.63;;
2305;SDS011;1161;51.922;8.896;2023-04-25T02:14:21;28.07;;;13.03;;
2305;SDS011;1161;51.922;8.896;2023-04-25T02:16:48;27.47;;;12.60;;
2305;SDS011;1161;51.922;8.896;2023-04-25T02:19:16;34.40;;;13.50;;
2305;SDS011;1161;51.922;8.896;2023-04-25T02:21:43;27.10;;;13.93;;
2305;SDS011;1161;51.922;8.896;2023-04-25T02:24:10;20.80;;;10.30;;
2305;SDS011;1161;51.922;8.896;2023-04-25T02:26:36;28.57;;;11.53;;
2305;SDS011;1161;51.922;8.896;2023-04-25T02:29:03;26.57;;;9.40;;
2305;SDS011;1161;51.922;8.896;2023-04-25T02:31:31;32.83;;;9.97;;
2305;SDS011;1161;51.922;8.896;2023-04-25T02:33:58;24.63;;;11.10;;
2305;SDS011;1161;51.922;8.896;2023-04-25T02:36:25;38.60;;;11.50;;
2305;SDS011;1161;51.922;8.896;2023-04-25T02:38:52;13.43;;;8.43;;
2305;SDS011;1161;51.922;8.896;2023-04-25T02:41:19;27.90;;;9.10;;
2305;SDS011;1161;51.922;8.896;2023-04-25T02:43:46;20.27;;;8.50;;
2305;SDS011;1161;51.922;8.896;2023-04-25T02:46:16;17.60;;;8.60;;
2305;SDS011;1161;51.922;8.896;2023-04-25T02:48:45;10.37;;;7.17;;
2305;SDS011;1161;51.922;8.896;2023-04-25T02:51:12;14.17;;;7.47;;
2305;SDS011;1161;51.922;8.896;2023-04-25T02:53:39;14.47;;;7.37;;
2305;SDS011;1161;51.922;8.896;2023-04-25T02:56:05;13.27;;;6.60;;
2305;SDS011;1161;51.922;8.896;2023-04-25T02:58:35;11.43;;;6.73;;
2305;SDS011;1161;51.922;8.896;2023-04-25T03:01:02;12.53;;;7.30;;
2305;SDS011;1161;51.922;8.896;2023-04-25T03:03:29;15.40;;;6.97;;
2305;SDS011;1161;51.922;8.896;2023-04-25T03:05:56;15.23;;;7.20;;
2305;SDS011;1161;51.922;8.896;2023-04-25T03:08:24;12.80;;;6.40;;
2305;SDS011;1161;51.922;8.896;2023-04-25T03:10:52;14.57;;;7.23;;
2305;SDS011;1161;51.922;8.896;2023-04-25T03:13:21;15.53;;;6.67;;
2305;SDS011;1161;51.922;8.896;2023-04-25T03:15:48;21.97;;;6.77;;
2305;SDS011;1161;51.922;8.896;2023-04-25T03:18:14;12.33;;;6.40;;
2305;SDS011;1161;51.922;8.896;2023-04-25T03:20:42;21.73;;;6.53;;
2305;SDS011;1161;51.922;8.896;2023-04-25T03:23:10;15.83;;;7.87;;
2305;SDS011;1161;51.922;8.896;2023-04-25T03:25:37;21.70;;;6.97;;
2305;SDS011;1161;51.922;8.896;2023-04-25T03:28:04;26.63;;;8.00;;
2305;SDS011;1161;51.922;8.896;2023-04-25T03:30:31;33.07;;;8.20;;
2305;SDS011;1161;51.922;8.896;2023-04-25T03:32:59;22.23;;;7.17;;
2305;SDS011;1161;51.922;8.896;2023-04-25T03:35:25;20.03;;;7.27;;
2305;SDS011;1161;51.922;8.896;2023-04-25T03:37:52;23.00;;;9.10;;
2305;SDS011;1161;51.922;8.896;2023-04-25T03:40:21;30.87;;;8.17;;
2305;SDS011;1161;51.922;8.896;2023-04-25T03:42:50;34.77;;;7.97;;
2305;SDS011;1161;51.922;8.896;2023-04-25T03:45:17;14.70;;;7.03;;
2305;SDS011;1161;51.922;8.896;2023-04-25T03:47:45;17.70;;;7.43;;
2305;SDS011;1161;51.922;8.896;2023-04-25T03:50:11;30.47;;;8.67;;
2305;SDS011;1161;51.922;8.896;2023-04-25T03:52:39;26.73;;;7.70;;
2305;SDS011;1161;51.922;8.896;2023-04-25T03:55:06;21.10;;;7.43;;
2305;SDS011;1161;51.922;8.896;2023-04-25T03:57:35;12.17;;;7.80;;
2305;SDS011;1161;51.922;8.896;2023-04-25T04:00:02;17.77;;;6.90;;
2305;SDS011;1161;51.922;8.896;2023-04-25T04:02:30;39.20;;;9.97;;
2305;SDS011;1161;51.922;8.896;2023-04-25T04:04:58;18.97;;;7.13;;
2305;SDS011;1161;51.922;8.896;2023-04-25T04:07:26;30.00;;;7.60;;
2305;SDS011;1161;51.922;8.896;2023-04-25T04:09:53;19.13;;;7.00;;
2305;SDS011;1161;51.922;8.896;2023-04-25T04:12:25;22.13;;;8.27;;
2305;SDS011;1161;51.922;8.896;2023-04-25T04:14:54;26.40;;;11.00;;
2305;SDS011;1161;51.922;8.896;2023-04-25T04:17:22;29.63;;;8.20;;
2305;SDS011;1161;51.922;8.896;2023-04-25T04:19:48;23.60;;;7.20;;
2305;SDS011;1161;51.922;8.896;2023-04-25T04:22:16;25.00;;;9.27;;
2305;SDS011;1161;51.922;8.896;2023-04-25T04:24:45;22.73;;;8.13;;
2305;SDS011;1161;51.922;8.896;2023-04-25T04:27:12;22.10;;;7.23;;
2305;SDS011;1161;51.922;8.896;2023-04-25T04:29:40;24.67;;;9.20;;
2305;SDS011;1161;51.922;8.896;2023-04-25T04:32:09;37.37;;;8.63;;
2305;SDS011;1161;51.922;8.896;2023-04-25T04:34:39;29.17;;;10.00;;
2305;SDS011;1161;51.922;8.896;2023-04-25T04:37:08;16.10;;;6.73;;
2305;SDS011;1161;51.922;8.896;2023-04-25T04:39:39;33.70;;;8.87;;
2305;SDS011;1161;51.922;8.896;2023-04-25T04:42:07;30.77;;;8.80;;
2305;SDS011;1161;51.922;8.896;2023-04-25T04:44:38;26.47;;;8.00;;
2305;SDS011;1161;51.922;8.896;2023-04-25T04:47:06;30.13;;;8.47;;
2305;SDS011;1161;51.922;8.896;2023-04-25T04:49:35;26.90;;;10.40;;
2305;SDS011;1161;51.922;8.896;2023-04-25T04:52:02;32.17;;;8.23;;
2305;SDS011;1161;51.922;8.896;2023-04-25T04:54:28;22.20;;;7.53;;
2305;SDS011;1161;51.922;8.896;2023-04-25T04:56:55;24.23;;;7.20;;
2305;SDS011;1161;51.922;8.896;2023-04-25T04:59:22;21.23;;;8.13;;
2305;SDS011;1161;51.922;8.896;2023-04-25T05:01:52;27.53;;;8.13;;
2305;SDS011;1161;51.922;8.896;2023-04-25T05:04:21;16.70;;;7.37;;
2305;SDS011;1161;51.922;8.896;2023-04-25T05:06:49;15.63;;;8.57;;
2305;SDS011;1161;51.922;8.896;2023-04-25T05:09:16;24.00;;;8.30;;
2305;SDS011;1161;51.922;8.896;2023-04-25T05:11:47;26.00;;;10.53;;
2305;SDS011;1161;51.922;8.896;2023-04-25T05:14:14;15.23;;;6.20;;
2305;SDS011;1161;51.922;8.896;2023-04-25T05:16:42;23.83;;;7.33;;
2305;SDS011;1161;51.922;8.896;2023-04-25T05:19:10;26.73;;;9.10;;
2305;SDS011;1161;51.922;8.896;2023-04-25T05:21:38;19.73;;;10.03;;
2305;SDS011;1161;51.922;8.896;2023-04-25T05:24:07;24.47;;;7.80;;
2305;SDS011;1161;51.922;8.896;2023-04-25T05:26:34;48.27;;;8.70;;
2305;SDS011;1161;51.922;8.896;2023-04-25T05:29:03;35.37;;;8.37;;
2305;SDS011;1161;51.922;8.896;2023-04-25T05:31:32;39.60;;;10.60;;
2305;SDS011;1161;51.922;8.896;2023-04-25T05:33:59;21.53;;;8.50;;
2305;SDS011;1161;51.922;8.896;2023-04-25T05:36:27;36.87;;;11.60;;
2305;SDS011;1161;51.922;8.896;2023-04-25T05:38:56;20.53;;;8.03;;
2305;SDS011;1161;51.922;8.896;2023-04-25T05:41:27;25.40;;;7.73;;
2305;SDS011;1161;51.922;8.896;2023-04-25T05:43:54;28.87;;;7.33;;
2305;SDS011;1161;51.922;8.896;2023-04-25T05:46:21;22.70;;;7.40;;
2305;SDS011;1161;51.922;8.896;2023-04-25T05:48:48;25.50;;;7.30;;
2305;SDS011;1161;51.922;8.896;2023-04-25T05:51:15;26.77;;;6.43;;
2305;SDS011;1161;51.922;8.896;2023-04-25T05:53:43;19.70;;;6.97;;
2305;SDS011;1161;51.922;8.896;2023-04-25T05:56:11;27.47;;;12.13;;
2305;SDS011;1161;51.922;8.896;2023-04-25T05:58:39;21.00;;;7.10;;
2305;SDS011;1161;51.922;8.896;2023-04-25T06:01:06;28.50;;;10.53;;
2305;SDS011;1161;51.922;8.896;2023-04-25T06:03:35;29.40;;;8.93;;
2305;SDS011;1161;51.922;8.896;2023-04-25T06:06:03;29.97;;;7.23;;
2305;SDS011;1161;51.922;8.896;2023-04-25T06:08:30;29.13;;;10.40;;
2305;SDS011;1161;51.922;8.896;2023-04-25T06:10:57;20.47;;;8.40;;
2305;SDS011;1161;51.922;8.896;2023-04-25T06:13:24;17.33;;;7.40;;
2305;SDS011;1161;51.922;8.896;2023-04-25T06:15:53;40.00;;;9.60;;
2305;SDS011;1161;51.922;8.896;2023-04-25T06:18:20;26.10;;;9.93;;
2305;SDS011;1161;51.922;8.896;2023-04-25T06:21:07;18.07;;;7.20;;
2305;SDS011;1161;51.922;8.896;2023-04-25T06:23:34;17.83;;;7.87;;
2305;SDS011;1161;51.922;8.896;2023-04-25T06:26:01;20.57;;;8.77;;
2305;SDS011;1161;51.922;8.896;2023-04-25T06:28:30;18.33;;;8.23;;
2305;SDS011;1161;51.922;8.896;2023-04-25T06:31:00;20.33;;;7.93;;
2305;SDS011;1161;51.922;8.896;2023-04-25T06:33:27;14.40;;;7.53;;
2305;SDS011;1161;51.922;8.896;2023-04-25T06:35:56;30.27;;;7.53;;
2305;SDS011;1161;51.922;8.896;2023-04-25T06:38:23;18.77;;;7.17;;
2305;SDS011;1161;51.922;8.896;2023-04-25T06:40:51;24.57;;;7.40;;
2305;SDS011;1161;51.922;8.896;2023-04-25T06:43:19;17.73;;;7.10;;
2305;SDS011;1161;51.922;8.896;2023-04-25T06:45:54;30.13;;;8.07;;
2305;SDS011;1161;51.922;8.896;2023-04-25T06:48:25;25.87;;;6.83;;
2305;SDS011;1161;51.922;8.896;2023-04-25T06:50:53;22.93;;;6.53;;
2305;SDS011;1161;51.922;8.896;2023-04-25T06:53:21;16.73;;;5.17;;
2305;SDS011;1161;51.922;8.896;2023-04-25T06:55:48;11.17;;;5.80;;
2305;SDS011;1161;51.922;8.896;2023-04-25T06:58:15;27.17;;;7.27;;
2305;SDS011;1161;51.922;8.896;2023-04-25T07:00:42;18.47;;;6.03;;
2305;SDS011;1161;51.922;8.896;2023-04-25T07:03:08;13.37;;;6.40;;
2305;SDS011;1161;51.922;8.896;2023-04-25T07:05:36;19.70;;;5.50;;
2305;SDS011;1161;51.922;8.896;2023-04-25T07:08:03;19.83;;;5.70;;
2305;SDS011;1161;51.922;8.896;2023-04-25T07:10:30;18.17;;;6.67;;
2305;SDS011;1161;51.922;8.896;2023-04-25T07:12:56;24.70;;;6.10;;
2305;SDS011;1161;51.922;8.896;2023-04-25T07:15:23;11.90;;;4.70;;
2305;SDS011;1161;51.922;8.896;2023-04-25T07:17:50;22.83;;;5.70;;
2305;SDS011;1161;51.922;8.896;2023-04-25T07:20:16;17.60;;;5.10;;
2305;SDS011;1161;51.922;8.896;2023-04-25T07:22:44;15.60;;;4.37;;
2305;SDS011;1161;51.922;8.896;2023-04-25T07:25:11;20.90;;;6.30;;
2305;SDS011;1161;51.922;8.896;2023-04-25T07:27:38;17.97;;;5.47;;
2305;SDS011;1161;51.922;8.896;2023-04-25T07:30:05;12.07;;;4.80;;
2305;SDS011;1161;51.922;8.896;2023-04-25T07:32:32;12.53;;;5.10;;
2305;SDS011;1161;51.922;8.896;2023-04-25T07:34:59;14.50;;;5.03;;
2305;SDS011;1161;51.922;8.896;2023-04-25T07:37:26;14.00;;;4.70;;
2305;SDS011;1161;51.922;8.896;2023-04-25T07:39:54;16.10;;;4.30;;
2305;SDS011;1161;51.922;8.896;2023-04-25T07:42:21;31.63;;;5.33;;
2305;SDS011;1161;51.922;8.896;2023-04-25T07:44:47;10.03;;;5.60;;
2305;SDS011;1161;51.922;8.896;2023-04-25T07:47:14;10.60;;;4.17;;
2305;SDS011;1161;51.922;8.896;2023-04-25T07:49:40;21.23;;;6.23;;
2305;SDS011;1161;51.922;8.896;2023-04-25T07:52:07;14.30;;;5.10;;
2305;SDS011;1161;51.922;8.896;2023-04-25T07:54:34;14.60;;;5.33;;
2305;SDS011;1161;51.922;8.896;2023-04-25T07:57:02;13.37;;;5.03;;
2305;SDS011;1161;51.922;8.896;2023-04-25T07:59:28;11.30;;;3.90;;
2305;SDS011;1161;51.922;8.896;2023-04-25T08:01:55;19.50;;;6.10;;
2305;SDS011;1161;51.922;8.896;2023-04-25T08:04:22;15.20;;;5.63;;
2305;SDS011;1161;51.922;8.896;2023-04-25T08:06:49;22.00;;;5.43;;
2305;SDS011;1161;51.922;8.896;2023-04-25T08:09:16;18.87;;;5.17;;
2305;SDS011;1161;51.922;8.896;2023-04-25T08:11:42;18.43;;;4.67;;
2305;SDS011;1161;51.922;8.896;2023-04-25T08:14:11;12.63;;;4.80;;
2305;SDS011;1161;51.922;8.896;2023-04-25T08:16:38;13.47;;;4.73;;
2305;SDS011;1161;51.922;8.896;2023-04-25T08:19:05;14.47;;;4.97;;
2305;SDS011;1161;51.922;8.896;2023-04-25T08:21:31;20.70;;;5.00;;
2305;SDS011;1161;51.922;8.896;2023-04-25T08:23:58;11.67;;;5.70;;
2305;SDS011;1161;51.922;8.896;2023-04-25T08:26:25;19.80;;;4.87;;
2305;SDS011;1161;51.922;8.896;2023-04-25T08:28:51;20.87;;;5.30;;
2305;SDS011;1161;51.922;8.896;2023-04-25T08:31:19;9.43;;;5.03;;
2305;SDS011;1161;51.922;8.896;2023-04-25T08:33:46;16.70;;;8.30;;
2305;SDS011;1161;51.922;8.896;2023-04-25T08:36:14;27.63;;;6.13;;
2305;SDS011;1161;51.922;8.896;2023-04-25T08:38:41;10.20;;;3.77;;
2305;SDS011;1161;51.922;8.896;2023-04-25T08:41:07;20.37;;;3.77;;
2305;SDS011;1161;51.922;8.896;2023-04-25T08:43:35;13.93;;;4.57;;
2305;SDS011;1161;51.922;8.896;2023-04-25T08:46:02;14.50;;;4.30;;
2305;SDS011;1161;51.922;8.896;2023-04-25T08:48:31;14.17;;;3.27;;
2305;SDS011;1161;51.922;8.896;2023-04-25T08:50:59;11.80;;;4.07;;
2305;SDS011;1161;51.922;8.896;2023-04-25T08:53:28;13.10;;;3.13;;
2305;SDS011;1161;51.922;8.896;2023-04-25T08:55:57;9.17;;;3.60;;
2305;SDS011;1161;51.922;8.896;2023-04-25T08:58:24;13.03;;;4.47;;
2305;SDS011;1161;51.922;8.896;2023-04-25T09:00:52;14.10;;;3.77;;
2305;SDS011;1161;51.922;8.896;2023-04-25T09:03:18;9.93;;;3.53;;
2305;SDS011;1161;51.922;8.896;2023-04-25T09:05:46;9.20;;;3.50;;
2305;SDS011;1161;51.922;8.896;2023-04-25T09:08:14;18.00;;;3.73;;
2305;SDS011;1161;51.922;8.896;2023-04-25T09:10:41;10.07;;;5.03;;
2305;SDS011;1161;51.922;8.896;2023-04-25T09:13:09;12.30;;;3.77;;
2305;SDS011;1161;51.922;8.896;2023-04-25T09:15:47;11.87;;;4.67;;
2305;SDS011;1161;51.922;8.896;2023-04-25T09:18:21;9.67;;;3.90;;
2305;SDS011;1161;51.922;8.896;2023-04-25T09:20:49;11.17;;;3.70;;
2305;SDS011;1161;51.922;8.896;2023-04-25T09:23:16;7.03;;;3.83;;
2305;SDS011;1161;51.922;8.896;2023-04-25T09:25:44;15.53;;;3.30;;
2305;SDS011;1161;51.922;8.896;2023-04-25T09:28:13;13.50;;;3.00;;
2305;SDS011;1161;51.922;8.896;2023-04-25T09:30:40;9.90;;;3.23;;
2305;SDS011;1161;51.922;8.896;2023-04-25T09:33:08;8.67;;;4.70;;
2305;SDS011;1161;51.922;8.896;2023-04-25T09:35:35;14.90;;;3.90;;
2305;SDS011;1161;51.922;8.896;2023-04-25T09:38:08;5.97;;;3.33;;
2305;SDS011;1161;51.922;8.896;2023-04-25T09:40:38;7.73;;;3.63;;
2305;SDS011;1161;51.922;8.896;2023-04-25T09:43:08;14.70;;;4.73;;
2305;SDS011;1161;51.922;8.896;2023-04-25T09:45:40;4.97;;;3.37;;
2305;SDS011;1161;51.922;8.896;2023-04-25T09:48:10;8.33;;;3.87;;
2305;SDS011;1161;51.922;8.896;2023-04-25T09:50:39;3.97;;;2.97;;
2305;SDS011;1161;51.922;8.896;2023-04-25T09:53:05;7.23;;;3.20;;
2305;SDS011;1161;51.922;8.896;2023-04-25T09:55:34;10.43;;;2.73;;
2305;SDS011;1161;51.922;8.896;2023-04-25T09:58:05;11.53;;;3.70;;
2305;SDS011;1161;51.922;8.896;2023-04-25T10:00:33;6.30;;;3.00;;
2305;SDS011;1161;51.922;8.896;2023-04-25T10:03:00;19.73;;;3.83;;
2305;SDS011;1161;51.922;8.896;2023-04-25T10:05:30;7.13;;;3.00;;
2305;SDS011;1161;51.922;8.896;2023-04-25T10:07:58;10.83;;;5.30;;
2305;SDS011;1161;51.922;8.896;2023-04-25T10:10:27;10.03;;;3.70;;
2305;SDS011;1161;51.922;8.896;2023-04-25T10:12:54;9.47;;;3.40;;
2305;SDS011;1161;51.922;8.896;2023-04-25T10:15:21;5.90;;;2.80;;
2305;SDS011;1161;51.922;8.896;2023-04-25T10:17:48;6.20;;;2.77;;
2305;SDS011;1161;51.922;8.896;2023-04-25T10:20:16;11.57;;;3.00;;
2305;SDS011;1161;51.922;8.896;2023-04-25T10:22:44;4.17;;;2.80;;
2305;SDS011;1161;51.922;8.896;2023-04-25T10:25:11;3.50;;;3.20;;
2305;SDS011;1161;51.922;8.896;2023-04-25T10:27:39;12.63;;;3.40;;
2305;SDS011;1161;51.922;8.896;2023-04-25T10:30:07;10.73;;;3.33;;
2305;SDS011;1161;51.922;8.896;2023-04-25T10:32:36;7.20;;;3.50;;
2305;SDS011;1161;51.922;8.896;2023-04-25T10:35:12;8.53;;;2.30;;
2305;SDS011;1161;51.922;8.896;2023-04-25T10:37:56;7.50;;;2.67;;
2305;SDS011;1161;51.922;8.896;2023-04-25T10:40:23;3.63;;;2.90;;
2305;SDS011;1161;51.922;8.896;2023-04-25T10:42:52;4.37;;;2.77;;
2305;SDS011;1161;51.922;8.896;2023-04-25T10:45:19;5.50;;;2.73;;
2305;SDS011;1161;51.922;8.896;2023-04-25T10:47:46;8.43;;;3.63;;
2305;SDS011;1161;51.922;8.896;2023-04-25T10:50:14;5.50;;;3.47;;
2305;SDS011;1161;51.922;8.896;2023-04-25T10:52:41;17.87;;;2.60;;
2305;SDS011;1161;51.922;8.896;2023-04-25T10:55:08;5.47;;;2.60;;
2305;SDS011;1161;51.922;8.896;2023-04-25T10:57:39;3.80;;;2.73;;
2305;SDS011;1161;51.922;8.896;2023-04-25T11:00:12;15.40;;;3.40;;
2305;SDS011;1161;51.922;8.896;2023-04-25T11:02:44;12.33;;;3.10;;
2305;SDS011;1161;51.922;8.896;2023-04-25T11:05:18;6.10;;;3.40;;
2305;SDS011;1161;51.922;8.896;2023-04-25T11:07:49;23.20;;;3.50;;
2305;SDS011;1161;51.922;8.896;2023-04-25T11:10:16;6.33;;;3.30;;
2305;SDS011;1161;51.922;8.896;2023-04-25T11:12:44;6.67;;;3.47;;
2305;SDS011;1161;51.922;8.896;2023-04-25T11:15:12;8.80;;;2.20;;
2305;SDS011;1161;51.922;8.896;2023-04-25T11:17:40;15.40;;;2.87;;
2305;SDS011;1161;51.922;8.896;2023-04-25T11:20:07;5.60;;;2.43;;
2305;SDS011;1161;51.922;8.896;2023-04-25T11:22:37;4.73;;;1.90;;
2305;SDS011;1161;51.922;8.896;2023-04-25T11:25:04;4.00;;;2.07;;
2305;SDS011;1161;51.922;8.896;2023-04-25T11:27:31;7.57;;;2.60;;
2305;SDS011;1161;51.922;8.896;2023-04-25T11:29:58;3.53;;;2.50;;
2305;SDS011;1161;51.922;8.896;2023-04-25T11:32:26;3.23;;;2.43;;
2305;SDS011;1161;51.922;8.896;2023-04-25T11:34:53;5.80;;;3.63;;
2305;SDS011;1161;51.922;8.896;2023-04-25T11:37:19;7.33;;;2.00;;
2305;SDS011;1161;51.922;8.896;2023-04-25T11:39:46;5.60;;;2.20;;
2305;SDS011;1161;51.922;8.896;2023-04-25T11:42:13;6.63;;;2.23;;
2305;SDS011;1161;51.922;8.896;2023-04-25T11:44:40;9.37;;;3.00;;
2305;SDS011;1161;51.922;8.896;2023-04-25T11:47:06;14.07;;;2.63;;
2305;SDS011;1161;51.922;8.896;2023-04-25T11:49:35;10.47;;;2.80;;
2305;SDS011;1161;51.922;8.896;2023-04-25T11:52:02;9.63;;;2.63;;
2305;SDS011;1161;51.922;8.896;2023-04-25T11:54:28;7.30;;;2.70;;
2305;SDS011;1161;51.922;8.896;2023-04-25T11:56:55;16.83;;;3.47;;
2305;SDS011;1161;51.922;8.896;2023-04-25T11:59:23;13.03;;;2.80;;
2305;SDS011;1161;51.922;8.896;2023-04-25T12:01:51;13.47;;;4.47;;
2305;SDS011;1161;51.922;8.896;2023-04-25T12:04:18;6.43;;;2.17;;
2305;SDS011;1161;51.922;8.896;2023-04-25T12:06:47;7.80;;;3.20;;
2305;SDS011;1161;51.922;8.896;2023-04-25T12:09:15;11.30;;;3.00;;
2305;SDS011;1161;51.922;8.896;2023-04-25T12:11:43;9.30;;;3.70;;
2305;SDS011;1161;51.922;8.896;2023-04-25T12:14:11;6.40;;;3.07;;
2305;SDS011;1161;51.922;8.896;2023-04-25T12:16:41;4.10;;;2.63;;
2305;SDS011;1161;51.922;8.896;2023-04-25T12:19:08;12.53;;;8.13;;
2305;SDS011;1161;51.922;8.896;2023-04-25T12:21:35;5.33;;;3.60;;
2305;SDS011;1161;51.922;8.896;2023-04-25T12:24:10;6.30;;;4.20;;
2305;SDS011;1161;51.922;8.896;2023-04-25T12:26:51;5.80;;;3.80;;
2305;SDS011;1161;51.922;8.896;2023-04-25T12:29:18;14.10;;;3.07;;
2305;SDS011;1161;51.922;8.896;2023-04-25T12:31:46;8.77;;;3.23;;
2305;SDS011;1161;51.922;8.896;2023-04-25T12:34:13;4.27;;;2.60;;
2305;SDS011;1161;51.922;8.896;2023-04-25T12:36:39;5.30;;;2.80;;
2305;SDS011;1161;51.922;8.896;2023-04-25T12:39:06;6.73;;;3.20;;
2305;SDS011;1161;51.922;8.896;2023-04-25T12:41:34;8.20;;;2.23;;
2305;SDS011;1161;51.922;8.896;2023-04-25T12:44:01;5.33;;;2.77;;
2305;SDS011;1161;51.922;8.896;2023-04-25T12:46:27;7.43;;;3.77;;
2305;SDS011;1161;51.922;8.896;2023-04-25T12:48:54;7.67;;;3.23;;
2305;SDS011;1161;51.922;8.896;2023-04-25T12:51:22;8.43;;;3.20;;
2305;SDS011;1161;51.922;8.896;2023-04-25T12:53:50;6.13;;;3.00;;
2305;SDS011;1161;51.922;8.896;2023-04-25T12:56:17;6.80;;;3.67;;
2305;SDS011;1161;51.922;8.896;2023-04-25T12:58:46;12.30;;;3.80;;
2305;SDS011;1161;51.922;8.896;2023-04-25T13:01:13;4.80;;;3.40;;
2305;SDS011;1161;51.922;8.896;2023-04-25T13:03:40;4.93;;;3.13;;
2305;SDS011;1161;51.922;8.896;2023-04-25T13:06:07;5.27;;;3.63;;
2305;SDS011;1161;51.922;8.896;2023-04-25T13:08:34;6.97;;;2.97;;
2305;SDS011;1161;51.922;8.896;2023-04-25T13:11:02;6.03;;;2.63;;
2305;SDS011;1161;51.922;8.896;2023-04-25T13:13:29;3.63;;;2.83;;
2305;SDS011;1161;51.922;8.896;2023-04-25T13:16:05;7.23;;;2.90;;
2305;SDS011;1161;51.922;8.896;2023-04-25T13:18:32;2.50;;;2.17;;
2305;SDS011;1161;51.922;8.896;2023-04-25T13:20:59;10.07;;;2.33;;
2305;SDS011;1161;51.922;8.896;2023-04-25T13:23:26;14.03;;;2.60;;
2305;SDS011;1161;51.922;8.896;2023-04-25T13:25:54;6.17;;;2.47;;
2305;SDS011;1161;51.922;8.896;2023-04-25T13:28:22;17.77;;;3.10;;
2305;SDS011;1161;51.922;8.896;2023-04-25T13:30:49;7.60;;;3.33;;
2305;SDS011;1161;51.922;8.896;2023-04-25T13:33:18;5.17;;;3.47;;
2305;SDS011;1161;51.922;8.896;2023-04-25T13:35:46;5.80;;;2.80;;
2305;SDS011;1161;51.922;8.896;2023-04-25T13:38:19;4.50;;;2.50;;
2305;SDS011;1161;51.922;8.896;2023-04-25T13:40:47;4.20;;;2.20;;
2305;SDS011;1161;51.922;8.896;2023-04-25T13:43:14;11.43;;;2.00;;
2305;SDS011;1161;51.922;8.896;2023-04-25T13:45:41;10.13;;;2.67;;
2305;SDS011;1161;51.922;8.896;2023-04-25T13:48:08;5.93;;;3.10;;
2305;SDS011;1161;51.922;8.896;2023-04-25T13:50:36;2.40;;;2.30;;
2305;SDS011;1161;51.922;8.896;2023-04-25T13:53:03;7.10;;;2.37;;
2305;SDS011;1161;51.922;8.896;2023-04-25T13:55:29;5.50;;;2.27;;
2305;SDS011;1161;51.922;8.896;2023-04-25T13:57:56;8.70;;;2.80;;
2305;SDS011;1161;51.922;8.896;2023-04-25T14:00:22;2.77;;;2.47;;
2305;SDS011;1161;51.922;8.896;2023-04-25T14:02:49;2.70;;;2.50;;
2305;SDS011;1161;51.922;8.896;2023-04-25T14:05:16;5.80;;;2.90;;
2305;SDS011;1161;51.922;8.896;2023-04-25T14:07:44;1.80;;;1.70;;
2305;SDS011;1161;51.922;8.896;2023-04-25T14:10:11;3.30;;;1.87;;
2305;SDS011;1161;51.922;8.896;2023-04-25T14:12:37;2.50;;;1.77;;
2305;SDS011;1161;51.922;8.896;2023-04-25T14:15:05;10.00;;;2.17;;
2305;SDS011;1161;51.922;8.896;2023-04-25T14:17:32;2.23;;;2.00;;
2305;SDS011;1161;51.922;8.896;2023-04-25T14:19:59;9.90;;;2.03;;
2305;SDS011;1161;51.922;8.896;2023-04-25T14:22:25;4.47;;;2.53;;
2305;SDS011;1161;51.922;8.896;2023-04-25T14:24:53;2.83;;;2.60;;
2305;SDS011;1161;51.922;8.896;2023-04-25T14:27:20;6.20;;;2.17;;
2305;SDS011;1161;51.922;8.896;2023-04-25T14:29:46;18.13;;;1.67;;
2305;SDS011;1161;51.922;8.896;2023-04-25T14:32:13;3.57;;;1.53;;
2305;SDS011;1161;51.922;8.896;2023-04-25T14:34:40;3.23;;;2.10;;
2305;SDS011;1161;51.922;8.896;2023-04-25T14:37:07;9.90;;;2.70;;
2305;SDS011;1161;51.922;8.896;2023-04-25T14:39:33;3.30;;;1.90;;
2305;SDS011;1161;51.922;8.896;2023-04-25T14:42:01;11.80;;;4.37;;
2305;SDS011;1161;51.922;8.896;2023-04-25T14:44:28;4.00;;;2.50;;
2305;SDS011;1161;51.922;8.896;2023-04-25T14:46:54;7.70;;;3.07;;
2305;SDS011;1161;51.922;8.896;2023-04-25T14:49:21;3.43;;;1.83;;
2305;SDS011;1161;51.922;8.896;2023-04-25T14:51:48;4.00;;;2.33;;
2305;SDS011;1161;51.922;8.896;2023-04-25T14:54:15;5.07;;;1.90;;
2305;SDS011;1161;51.922;8.896;2023-04-25T14:56:42;5.10;;;2.43;;
2305;SDS011;1161;51.922;8.896;2023-04-25T14:59:10;4.30;;;2.63;;
2305;SDS011;1161;51.922;8.896;2023-04-25T15:01:36;10.83;;;2.17;;
2305;SDS011;1161;51.922;8.896;2023-04-25T15:04:03;3.50;;;2.83;;
2305;SDS011;1161;51.922;8.896;2023-04-25T15:06:30;2.67;;;2.43;;